createdAt,value
2019-03-17T00:01:36.042Z,99473.36
2019-03-17T00:04:05.348Z,99466.49
2019-03-17T00:06:34.595Z,99466.49
2019-03-17T00:09:04.772Z,99469.61
2019-03-17T00:11:33.961Z,99467.03
2019-03-17T00:14:03.471Z,99466.08
2019-03-17T00:16:32.825Z,99464.19
2019-03-17T00:19:02.020Z,99472.75
2019-03-17T00:21:31.265Z,99465.76
2019-03-17T00:24:00.503Z,99462.23
2019-03-17T00:26:29.699Z,99459.99
2019-03-17T00:28:58.934Z,99452.25
2019-03-17T00:31:28.288Z,99463.05
2019-03-17T00:33:57.493Z,99463.58
2019-03-17T00:36:26.722Z,99448.98
2019-03-17T00:38:55.964Z,99436.20
2019-03-17T00:41:25.180Z,99437.48
2019-03-17T00:43:54.358Z,99435.31
2019-03-17T00:46:23.577Z,99434.02
2019-03-17T00:48:52.871Z,99423.77
2019-03-17T00:51:22.072Z,99416.36
2019-03-17T00:53:51.347Z,99408.27
2019-03-17T00:56:20.562Z,99397.59
2019-03-17T00:58:49.862Z,99402.63
2019-03-17T01:01:19.171Z,99395.83
2019-03-17T01:03:48.371Z,99393.25
2019-03-17T01:06:17.682Z,99400.52
2019-03-17T01:08:46.926Z,99394.89
2019-03-17T01:11:16.113Z,99392.72
2019-03-17T01:13:45.362Z,99404.33
2019-03-17T01:16:14.563Z,99400.05
2019-03-17T01:18:43.761Z,99399.30
2019-03-17T01:21:12.966Z,99389.56
2019-03-17T01:23:42.184Z,99386.70
2019-03-17T01:26:11.356Z,99387.58
2019-03-17T01:28:40.566Z,99382.55
2019-03-17T01:31:09.790Z,99374.03
2019-03-17T01:33:39.523Z,99367.64
2019-03-17T01:36:08.793Z,99367.30
2019-03-17T01:38:38.074Z,99366.00
2019-03-17T01:41:07.230Z,99363.83
2019-03-17T01:43:36.423Z,99360.43
2019-03-17T01:46:05.645Z,99357.84
2019-03-17T01:48:34.834Z,99353.97
2019-03-17T01:51:04.135Z,99352.21
2019-03-17T01:53:33.366Z,99343.23
2019-03-17T01:56:02.576Z,99346.70
2019-03-17T01:58:31.788Z,99346.34
2019-03-17T02:01:01.092Z,99343.35
2019-03-17T02:03:30.403Z,99338.25
2019-03-17T02:05:59.634Z,99340.42
2019-03-17T02:08:28.941Z,99335.73
2019-03-17T02:10:58.141Z,99336.66
2019-03-17T02:13:27.328Z,99335.44
2019-03-17T02:15:56.648Z,99338.55
2019-03-17T02:18:25.808Z,99338.61
2019-03-17T02:20:55.035Z,99334.38
2019-03-17T02:23:24.307Z,99331.45
2019-03-17T02:25:53.524Z,99324.64
2019-03-17T02:28:22.729Z,99324.23
2019-03-17T02:30:52.043Z,99312.66
2019-03-17T02:33:21.228Z,99305.73
2019-03-17T02:35:50.638Z,99305.80
2019-03-17T02:38:19.898Z,99291.64
2019-03-17T02:40:49.097Z,99289.94
2019-03-17T02:43:18.317Z,99293.88
2019-03-17T02:45:47.544Z,99298.56
2019-03-17T02:48:16.726Z,99290.81
2019-03-17T02:50:45.914Z,99287.35
2019-03-17T02:53:15.156Z,99281.77
2019-03-17T02:55:44.375Z,99148.28
2019-03-17T02:58:13.568Z,99277.19
2019-03-17T03:00:42.884Z,99277.25
2019-03-17T03:03:12.079Z,99269.55
2019-03-17T03:05:53.942Z,99270.02
2019-03-17T03:08:12.329Z,99265.68
2019-03-17T03:10:41.597Z,99260.98
2019-03-17T03:13:10.772Z,99258.86
2019-03-17T03:15:40.076Z,99256.22
2019-03-17T03:18:09.296Z,99242.01
2019-03-17T03:20:38.487Z,99230.85
2019-03-17T03:23:07.722Z,99223.56
2019-03-17T03:25:36.925Z,99213.23
2019-03-17T03:28:06.165Z,99205.42
2019-03-17T03:30:35.427Z,99205.89
2019-03-17T03:33:04.669Z,99202.48
2019-03-17T03:35:33.899Z,99201.13
2019-03-17T03:38:03.931Z,99202.48
2019-03-17T03:40:33.308Z,99185.27
2019-03-17T03:43:02.601Z,99181.81
2019-03-17T03:45:31.818Z,99183.57
2019-03-17T03:48:01.043Z,99169.36
2019-03-17T03:50:30.233Z,99172.05
2019-03-17T03:52:59.471Z,99156.55
2019-03-17T03:55:28.673Z,99156.59
2019-03-17T03:57:57.904Z,99153.14
2019-03-17T04:00:27.139Z,99148.44
2019-03-17T04:02:56.308Z,99148.48
2019-03-17T04:05:25.514Z,99138.67
2019-03-17T04:07:54.855Z,99132.20
2019-03-17T04:10:24.051Z,99121.15
2019-03-17T04:12:53.265Z,99122.13
2019-03-17T04:15:22.498Z,99126.48
2019-03-17T04:17:51.714Z,99123.48
2019-03-17T04:20:20.944Z,99113.14
2019-03-17T04:22:50.167Z,99111.48
2019-03-17T04:25:19.441Z,99105.95
2019-03-17T04:27:48.651Z,99099.48
2019-03-17T04:30:17.922Z,99097.78
2019-03-17T04:32:47.102Z,99095.72
2019-03-17T04:35:16.331Z,99091.84
2019-03-17T04:37:45.563Z,99087.03
2019-03-17T04:40:14.965Z,99077.41
2019-03-17T04:42:44.184Z,99071.31
2019-03-17T04:45:13.621Z,99067.44
2019-03-17T04:47:42.921Z,99069.20
2019-03-17T04:50:12.224Z,99059.73
2019-03-17T04:52:41.478Z,99061.03
2019-03-17T04:55:10.689Z,99068.01
2019-03-17T04:57:39.884Z,99066.77
2019-03-17T05:00:09.312Z,99065.52
2019-03-17T05:02:38.518Z,99060.41
2019-03-17T05:05:08.146Z,99056.98
2019-03-17T05:07:37.735Z,99046.23
2019-03-17T05:10:07.154Z,99038.06
2019-03-17T05:12:36.381Z,99030.36
2019-03-17T05:15:05.699Z,99032.16
2019-03-17T05:17:34.881Z,99026.16
2019-03-17T05:20:04.201Z,99020.22
2019-03-17T05:22:33.476Z,99014.67
2019-03-17T05:25:02.685Z,99007.43
2019-03-17T05:27:31.848Z,99007.48
2019-03-17T05:30:01.108Z,99000.23
2019-03-17T05:32:30.370Z,98996.41
2019-03-17T05:34:59.564Z,98996.03
2019-03-17T05:37:28.779Z,98992.25
2019-03-17T05:39:57.961Z,98987.59
2019-03-17T05:42:27.308Z,98979.87
2019-03-17T05:44:56.552Z,98970.50
2019-03-17T05:47:25.760Z,98972.25
2019-03-17T05:49:54.967Z,98969.30
2019-03-17T05:52:24.212Z,98964.17
2019-03-17T05:54:53.392Z,98959.92
2019-03-17T05:57:22.582Z,98948.28
2019-03-17T05:59:51.784Z,98946.16
2019-03-17T06:02:21.254Z,98951.79
2019-03-17T06:04:50.432Z,98947.08
2019-03-17T06:07:19.743Z,98945.37
2019-03-17T06:09:48.931Z,98932.02
2019-03-17T06:12:18.270Z,98927.30
2019-03-17T06:14:47.485Z,98927.30
2019-03-17T06:17:16.764Z,98922.12
2019-03-17T06:19:45.965Z,98915.66
2019-03-17T06:22:15.213Z,98910.03
2019-03-17T06:24:44.495Z,98901.06
2019-03-17T06:27:13.788Z,98897.59
2019-03-17T06:29:43.035Z,98883.33
2019-03-17T06:32:12.241Z,98888.55
2019-03-17T06:34:41.427Z,98886.84
2019-03-17T06:37:10.689Z,98884.20
2019-03-17T06:39:39.886Z,98885.91
2019-03-17T06:42:09.070Z,98878.16
2019-03-17T06:44:38.402Z,98873.40
2019-03-17T06:47:07.598Z,98874.69
2019-03-17T06:49:36.817Z,98863.47
2019-03-17T06:52:06.080Z,98867.72
2019-03-17T06:54:35.269Z,98869.30
2019-03-17T06:57:04.540Z,98854.53
2019-03-17T06:59:33.810Z,98857.03
2019-03-17T07:02:03.057Z,98851.81
2019-03-17T07:04:32.248Z,98850.11
2019-03-17T07:07:01.484Z,98844.44
2019-03-17T07:09:31.078Z,98845.22
2019-03-17T07:12:00.626Z,98836.08
2019-03-17T07:14:30.031Z,98826.98
2019-03-17T07:16:59.202Z,98823.02
2019-03-17T07:19:28.442Z,98827.73
2019-03-17T07:21:57.804Z,98816.89
2019-03-17T07:24:27.048Z,98808.21
2019-03-17T07:26:56.229Z,98812.84
2019-03-17T07:29:25.557Z,98806.70
2019-03-17T07:31:54.761Z,98796.69
2019-03-17T07:34:23.921Z,98791.48
2019-03-17T07:36:53.157Z,98792.69
2019-03-17T07:39:22.336Z,98783.13
2019-03-17T07:41:51.533Z,98788.26
2019-03-17T07:44:20.786Z,98782.59
2019-03-17T07:46:50.239Z,98771.79
2019-03-17T07:49:19.417Z,98764.41
2019-03-17T07:51:48.643Z,98757.95
2019-03-17T07:54:17.841Z,98751.91
2019-03-17T07:56:47.039Z,98749.69
2019-03-17T07:59:16.290Z,98740.19
2019-03-17T08:01:45.493Z,98741.81
2019-03-17T08:04:14.677Z,98739.55
2019-03-17T08:06:43.959Z,98734.76
2019-03-17T08:09:13.154Z,98688.06
2019-03-17T08:11:42.438Z,98728.21
2019-03-17T08:14:11.623Z,98723.83
2019-03-17T08:16:40.938Z,98707.33
2019-03-17T08:19:10.149Z,98711.95
2019-03-17T08:21:39.388Z,98704.20
2019-03-17T08:24:08.584Z,98695.11
2019-03-17T08:26:37.787Z,98691.70
2019-03-17T08:29:07.070Z,98691.19
2019-03-17T08:31:36.250Z,98695.39
2019-03-17T08:34:05.447Z,98680.77
2019-03-17T08:36:34.683Z,98671.27
2019-03-17T08:39:05.294Z,98659.23
2019-03-17T08:41:37.411Z,98663.53
2019-03-17T08:44:05.477Z,98653.20
2019-03-17T08:46:34.757Z,98652.78
2019-03-17T08:49:04.382Z,98643.78
2019-03-17T08:51:33.773Z,98647.23
2019-03-17T08:54:03.074Z,98627.78
2019-03-17T08:56:35.597Z,98630.78
2019-03-17T08:59:04.862Z,98625.62
2019-03-17T09:01:34.031Z,98614.83
2019-03-17T09:04:03.237Z,98619.25
2019-03-17T09:06:32.466Z,98609.33
2019-03-17T09:09:01.743Z,98613.25
2019-03-17T09:11:30.945Z,98614.16
2019-03-17T09:14:00.169Z,98602.92
2019-03-17T09:16:29.689Z,98593.88
2019-03-17T09:18:59.005Z,98595.62
2019-03-17T09:21:28.284Z,98592.22
2019-03-17T09:24:00.194Z,98586.25
2019-03-17T09:26:34.260Z,98581.09
2019-03-17T09:29:03.406Z,98578.17
2019-03-17T09:31:32.705Z,98577.38
2019-03-17T09:34:02.380Z,98565.79
2019-03-17T09:36:32.537Z,98557.66
2019-03-17T09:39:02.196Z,98543.12
2019-03-17T09:41:31.444Z,98546.20
2019-03-17T09:44:00.876Z,98538.48
2019-03-17T09:46:30.503Z,98533.89
2019-03-17T09:48:59.784Z,98519.80
2019-03-17T09:51:29.562Z,98522.11
2019-03-17T09:53:58.762Z,98517.02
2019-03-17T09:56:28.018Z,98515.42
2019-03-17T09:58:57.190Z,98512.56
2019-03-17T10:01:26.425Z,98498.91
2019-03-17T10:03:55.659Z,98495.59
2019-03-17T10:06:24.860Z,98494.85
2019-03-17T10:08:59.796Z,98493.31
2019-03-17T10:11:25.014Z,98492.19
2019-03-17T10:13:54.194Z,98487.64
2019-03-17T10:16:23.512Z,98480.43
2019-03-17T10:18:52.756Z,98465.07
2019-03-17T10:21:22.081Z,98467.37
2019-03-17T10:23:51.268Z,98465.75
2019-03-17T10:26:20.505Z,98462.44
2019-03-17T10:28:49.693Z,98465.18
2019-03-17T10:31:18.913Z,98452.36
2019-03-17T10:33:48.124Z,98456.39
2019-03-17T10:36:18.269Z,98454.36
2019-03-17T10:38:47.464Z,98454.93
2019-03-17T10:41:16.722Z,98439.53
2019-03-17T10:43:45.898Z,98445.25
2019-03-17T10:46:15.121Z,98431.13
2019-03-17T10:48:44.363Z,98417.41
2019-03-17T10:51:13.561Z,98419.69
2019-03-17T10:53:43.076Z,98411.14
2019-03-17T10:56:12.381Z,98417.27
2019-03-17T10:58:41.605Z,98407.42
2019-03-17T11:01:10.799Z,98403.61
2019-03-17T11:03:40.033Z,98402.01
2019-03-17T11:06:09.269Z,98395.64
2019-03-17T11:08:38.826Z,98387.89
2019-03-17T11:11:08.066Z,98388.80
2019-03-17T11:13:37.272Z,98403.53
2019-03-17T11:16:06.530Z,98384.16
2019-03-17T11:18:35.793Z,98382.07
2019-03-17T11:21:04.995Z,98380.86
2019-03-17T11:23:34.298Z,98378.33
2019-03-17T11:26:03.573Z,98380.07
2019-03-17T11:28:32.764Z,98374.92
2019-03-17T11:31:01.977Z,98375.41
2019-03-17T11:33:31.295Z,98370.67
2019-03-17T11:36:00.497Z,98373.77
2019-03-17T11:38:29.802Z,98372.09
2019-03-17T11:40:59.045Z,98365.64
2019-03-17T11:43:28.245Z,98360.91
2019-03-17T11:45:57.521Z,98356.61
2019-03-17T11:48:26.759Z,98353.65
2019-03-17T11:50:55.974Z,98348.94
2019-03-17T11:53:25.156Z,98349.84
2019-03-17T11:55:54.499Z,98348.17
2019-03-17T11:58:23.693Z,98336.09
2019-03-17T12:00:52.904Z,98338.32
2019-03-17T12:03:22.203Z,98341.84
2019-03-17T12:05:51.413Z,98345.35
2019-03-17T12:08:20.595Z,98346.27
2019-03-17T12:10:49.821Z,98337.64
2019-03-17T12:13:19.025Z,98328.16
2019-03-17T12:15:48.218Z,98314.77
2019-03-17T12:18:17.442Z,98322.18
2019-03-17T12:20:46.660Z,98317.89
2019-03-17T12:23:15.919Z,98320.06
2019-03-17T12:25:45.619Z,98318.81
2019-03-17T12:28:14.821Z,98308.85
2019-03-17T12:30:43.998Z,98313.62
2019-03-17T12:33:13.303Z,98305.86
2019-03-17T12:35:42.521Z,98298.10
2019-03-17T12:38:11.820Z,98305.09
2019-03-17T12:40:41.072Z,98303.41
2019-03-17T12:43:10.313Z,98301.30
2019-03-17T12:45:39.949Z,98300.45
2019-03-17T12:48:09.519Z,98300.48
2019-03-17T12:50:38.724Z,98304.83
2019-03-17T12:53:08.159Z,98307.01
2019-03-17T12:55:37.559Z,98303.54
2019-03-17T12:58:07.035Z,98312.64
2019-03-17T13:00:36.326Z,98311.35
2019-03-17T13:03:05.947Z,98309.17
2019-03-17T13:05:35.136Z,98310.92
2019-03-17T13:08:04.399Z,98311.38
2019-03-17T13:10:33.632Z,98314.44
2019-03-17T13:13:02.875Z,98314.02
2019-03-17T13:15:32.080Z,98315.31
2019-03-17T13:18:01.381Z,98306.23
2019-03-17T13:20:30.620Z,98315.34
2019-03-17T13:22:59.828Z,98308.84
2019-03-17T13:25:29.097Z,98283.70
2019-03-17T13:27:58.687Z,98294.53
2019-03-17T13:30:27.905Z,98285.87
2019-03-17T13:32:57.182Z,98282.41
2019-03-17T13:35:26.414Z,98291.94
2019-03-17T13:37:55.646Z,98288.89
2019-03-17T13:40:29.431Z,98285.86
2019-03-17T13:42:56.597Z,98296.69
2019-03-17T13:45:26.358Z,98305.79
2019-03-17T13:47:55.544Z,98270.16
2019-03-17T13:50:24.931Z,98297.12
2019-03-17T13:52:54.322Z,98301.02
2019-03-17T13:55:23.889Z,98304.91
2019-03-17T13:57:54.912Z,98310.10
2019-03-17T14:00:24.451Z,98305.75
2019-03-17T14:02:53.849Z,98306.61
2019-03-17T14:05:23.220Z,98299.23
2019-03-17T14:07:52.412Z,98304.42
2019-03-17T14:10:21.810Z,98304.40
2019-03-17T14:12:50.976Z,98304.83
2019-03-17T14:15:20.399Z,98302.67
2019-03-17T14:17:49.679Z,98306.57
2019-03-17T14:20:20.880Z,98315.66
2019-03-17T14:22:50.524Z,98310.02
2019-03-17T14:25:22.782Z,98311.30
2019-03-17T14:27:52.194Z,98299.16
2019-03-17T14:30:21.687Z,98317.34
2019-03-17T14:32:50.985Z,98314.73
2019-03-17T14:35:21.670Z,98300.45
2019-03-17T14:37:51.449Z,98298.30
2019-03-17T14:40:20.755Z,98287.94
2019-03-17T14:42:50.113Z,98279.05
2019-03-17T14:45:19.349Z,98273.65
2019-03-17T14:47:48.668Z,98275.47
2019-03-17T14:50:18.548Z,98309.31
2019-03-17T14:52:47.798Z,98283.24
2019-03-17T14:55:17.171Z,98309.38
2019-03-17T14:57:46.513Z,98309.33
2019-03-17T15:00:17.558Z,98310.36
2019-03-17T15:02:46.989Z,98310.41
2019-03-17T15:05:16.243Z,98312.26
2019-03-17T15:07:45.626Z,98314.33
2019-03-17T15:10:16.266Z,98317.07
2019-03-17T15:12:45.611Z,98324.11
2019-03-17T15:15:17.268Z,98324.45
2019-03-17T15:17:47.032Z,98318.77
2019-03-17T15:20:17.751Z,98307.70
2019-03-17T15:22:47.213Z,98304.91
2019-03-17T15:25:16.601Z,98321.48
2019-03-17T15:27:45.833Z,98298.58
2019-03-17T15:30:17.352Z,98298.58
2019-03-17T15:32:46.776Z,98319.86
2019-03-17T15:35:16.074Z,98341.06
2019-03-17T15:37:45.431Z,98334.93
2019-03-17T15:40:14.975Z,98343.05
2019-03-17T15:42:44.250Z,98344.52
2019-03-17T15:45:14.820Z,98348.22
2019-03-17T15:47:45.694Z,98348.22
2019-03-17T15:50:16.011Z,98365.13
2019-03-17T15:52:46.228Z,98365.13
2019-03-17T15:55:16.112Z,98361.77
2019-03-17T15:57:46.612Z,98359.23
2019-03-17T16:00:24.775Z,98358.84
2019-03-17T16:02:48.998Z,98362.35
2019-03-17T16:05:18.412Z,98367.59
2019-03-17T16:07:47.971Z,98365.89
2019-03-17T16:10:18.518Z,98371.09
2019-03-17T16:12:47.858Z,98371.52
2019-03-17T16:15:17.436Z,98374.98
2019-03-17T16:17:47.044Z,98375.86
2019-03-17T16:20:17.556Z,98378.45
2019-03-17T16:22:47.206Z,98375.36
2019-03-17T16:25:17.070Z,98371.36
2019-03-17T16:27:46.288Z,98373.88
2019-03-17T16:30:17.828Z,98363.80
2019-03-17T16:32:47.172Z,98369.80
2019-03-17T16:35:16.857Z,98368.84
2019-03-17T16:37:46.244Z,98370.53
2019-03-17T16:40:16.910Z,98372.66
2019-03-17T16:42:46.485Z,98368.70
2019-03-17T16:45:16.126Z,98376.48
2019-03-17T16:47:45.434Z,98386.42
2019-03-17T16:50:15.930Z,98383.77
2019-03-17T16:52:45.481Z,98379.83
2019-03-17T16:55:15.050Z,98389.74
2019-03-17T16:57:44.272Z,98388.39
2019-03-17T17:00:18.871Z,98393.97
2019-03-17T17:02:47.061Z,98312.48
2019-03-17T17:05:16.677Z,98407.70
2019-03-17T17:07:45.973Z,98404.61
2019-03-17T17:10:16.607Z,98409.32
2019-03-17T17:12:46.090Z,98411.45
2019-03-17T17:15:17.387Z,98410.95
2019-03-17T17:17:46.854Z,98414.36
2019-03-17T17:20:18.189Z,98419.05
2019-03-17T17:22:47.399Z,98418.13
2019-03-17T17:25:16.625Z,98418.52
2019-03-17T17:27:46.782Z,98416.30
2019-03-17T17:30:16.611Z,98419.30
2019-03-17T17:32:48.584Z,98421.84
2019-03-17T17:35:17.833Z,98360.72
2019-03-17T17:37:47.212Z,98417.86
2019-03-17T17:40:16.985Z,98416.09
2019-03-17T17:42:46.307Z,98409.13
2019-03-17T17:45:16.175Z,98424.66
2019-03-17T17:47:45.547Z,98431.98
2019-03-17T17:50:16.231Z,98433.66
2019-03-17T17:52:45.495Z,98438.36
2019-03-17T17:55:14.692Z,98331.91
2019-03-17T17:57:43.911Z,98439.97
2019-03-17T18:00:16.216Z,98448.16
2019-03-17T18:02:45.844Z,98439.81
2019-03-17T18:05:15.163Z,98452.78
2019-03-17T18:07:44.859Z,98452.31
2019-03-17T18:10:14.076Z,98449.25
2019-03-17T18:12:43.316Z,98446.61
2019-03-17T18:15:14.219Z,98456.09
2019-03-17T18:17:43.469Z,98456.91
2019-03-17T18:20:13.134Z,98456.42
2019-03-17T18:22:42.401Z,98469.81
2019-03-17T18:25:12.601Z,98468.07
2019-03-17T18:27:41.809Z,98466.28
2019-03-17T18:30:13.110Z,98466.70
2019-03-17T18:32:42.332Z,98462.37
2019-03-17T18:35:11.712Z,98468.40
2019-03-17T18:37:40.942Z,98465.80
2019-03-17T18:40:11.829Z,98466.23
2019-03-17T18:42:41.029Z,98473.61
2019-03-17T18:45:12.149Z,98472.69
2019-03-17T18:47:41.365Z,98466.66
2019-03-17T18:50:20.203Z,98474.41
2019-03-17T18:52:42.140Z,98476.55
2019-03-17T18:55:11.980Z,98479.13
2019-03-17T18:57:41.239Z,98475.23
2019-03-17T19:00:13.695Z,98470.92
2019-03-17T19:02:42.958Z,98484.33
2019-03-17T19:05:13.056Z,98488.64
2019-03-17T19:07:42.409Z,98481.29
2019-03-17T19:10:12.015Z,98193.62
2019-03-17T19:12:45.944Z,98486.45
2019-03-17T19:15:13.373Z,98492.03
2019-03-17T19:17:42.770Z,98493.30
2019-03-17T19:20:13.275Z,98495.41
2019-03-17T19:22:42.663Z,98496.22
2019-03-17T19:25:12.817Z,98498.77
2019-03-17T19:27:42.052Z,98497.84
2019-03-17T19:30:12.529Z,98494.32
2019-03-17T19:32:41.791Z,98507.28
2019-03-17T19:35:11.440Z,98494.72
2019-03-17T19:37:40.675Z,98503.34
2019-03-17T19:40:11.225Z,98498.61
2019-03-17T19:42:40.656Z,98498.13
2019-03-17T19:45:10.138Z,98392.00
2019-03-17T19:47:39.435Z,98507.20
2019-03-17T19:50:09.361Z,98503.28
2019-03-17T19:52:38.711Z,98398.48
2019-03-17T19:55:08.002Z,98507.14
2019-03-17T19:57:37.215Z,98509.28
2019-03-17T20:00:06.972Z,98508.44
2019-03-17T20:02:36.194Z,98500.22
2019-03-17T20:05:05.657Z,98504.11
2019-03-17T20:07:35.151Z,98509.28
2019-03-17T20:10:04.625Z,98511.01
2019-03-17T20:12:34.165Z,98507.96
2019-03-17T20:15:03.362Z,98509.27
2019-03-17T20:17:32.635Z,98503.17
2019-03-17T20:20:01.862Z,98502.30
2019-03-17T20:22:31.291Z,98504.45
2019-03-17T20:25:00.555Z,98503.12
2019-03-17T20:27:30.967Z,98498.36
2019-03-17T20:30:00.384Z,98499.63
2019-03-17T20:32:29.698Z,98512.61
2019-03-17T20:34:58.971Z,98500.95
2019-03-17T20:37:28.383Z,98504.81
2019-03-17T20:39:57.573Z,98501.38
2019-03-17T20:42:26.753Z,98504.42
2019-03-17T20:44:56.464Z,98520.36
2019-03-17T20:47:25.794Z,98507.43
2019-03-17T20:49:55.114Z,98505.74
2019-03-17T20:52:24.424Z,98499.29
2019-03-17T20:54:53.697Z,98498.45
2019-03-17T20:57:22.995Z,98509.28
2019-03-17T20:59:52.296Z,98501.91
2019-03-17T21:02:21.573Z,98508.39
2019-03-17T21:04:50.750Z,98501.03
2019-03-17T21:07:19.966Z,98497.17
2019-03-17T21:09:49.155Z,98494.61
2019-03-17T21:12:18.373Z,98463.25
2019-03-17T21:14:47.800Z,98496.75
2019-03-17T21:17:16.998Z,98492.86
2019-03-17T21:19:46.273Z,98495.48
2019-03-17T21:22:15.612Z,98496.33
2019-03-17T21:24:44.805Z,98501.56
2019-03-17T21:27:14.037Z,98499.42
2019-03-17T21:29:43.278Z,98497.73
2019-03-17T21:32:12.546Z,98508.10
2019-03-17T21:34:41.747Z,98497.73
2019-03-17T21:37:11.003Z,98502.91
2019-03-17T21:39:40.345Z,98505.91
2019-03-17T21:42:09.608Z,98497.68
2019-03-17T21:44:41.990Z,98506.70
2019-03-17T21:47:12.412Z,98507.96
2019-03-17T21:49:41.595Z,98500.16
2019-03-17T21:52:10.931Z,98509.66
2019-03-17T21:54:40.129Z,98516.98
2019-03-17T21:57:09.423Z,98509.63
2019-03-17T21:59:38.896Z,98510.45
2019-03-17T22:02:12.854Z,98507.37
2019-03-17T22:04:40.269Z,98505.63
2019-03-17T22:07:12.351Z,98498.28
2019-03-17T22:09:41.530Z,98495.66
2019-03-17T22:12:10.724Z,98496.54
2019-03-17T22:14:40.005Z,98499.97
2019-03-17T22:17:09.469Z,98506.00
2019-03-17T22:19:38.803Z,98499.95
2019-03-17T22:22:09.092Z,98510.76
2019-03-17T22:24:38.482Z,98510.78
2019-03-17T22:27:07.729Z,98505.13
2019-03-17T22:29:36.987Z,98518.05
2019-03-17T22:32:06.238Z,98516.33
2019-03-17T22:34:35.693Z,98509.86
2019-03-17T22:37:05.192Z,98508.98
2019-03-17T22:39:34.467Z,98505.55
2019-03-17T22:42:03.698Z,98503.86
2019-03-17T22:44:33.004Z,98497.38
2019-03-17T22:47:02.196Z,98516.39
2019-03-17T22:49:31.607Z,98507.32
2019-03-17T22:52:00.935Z,98505.18
2019-03-17T22:54:30.123Z,98503.02
2019-03-17T22:56:59.339Z,98501.30
2019-03-17T22:59:28.584Z,98505.61
2019-03-17T23:01:57.854Z,98504.28
2019-03-17T23:04:27.108Z,98503.86
2019-03-17T23:06:56.314Z,98499.95
2019-03-17T23:09:25.505Z,98503.86
2019-03-17T23:11:54.739Z,98391.69
2019-03-17T23:14:35.903Z,98508.17
2019-03-17T23:16:55.258Z,98501.69
2019-03-17T23:19:24.546Z,98498.25
2019-03-17T23:21:53.779Z,98504.76
2019-03-17T23:24:22.983Z,98499.16
2019-03-17T23:26:52.174Z,98495.72
2019-03-17T23:29:21.453Z,98500.90
2019-03-17T23:31:50.670Z,98496.98
2019-03-17T23:34:19.925Z,98499.58
2019-03-17T23:36:49.469Z,98493.95
2019-03-17T23:39:18.653Z,98503.41
2019-03-17T23:41:47.830Z,98497.35
2019-03-17T23:44:17.096Z,98497.75
2019-03-17T23:46:46.397Z,98492.98
2019-03-17T23:49:15.584Z,98494.25
2019-03-17T23:51:44.931Z,98494.68
2019-03-17T23:54:14.149Z,98493.81
2019-03-17T23:56:43.340Z,98492.09
2019-03-17T23:59:12.580Z,98488.20
